sensor_id;sensor_type;location;lat;lon;timestamp;P1;durP1;ratioP1;P2;durP2;ratioP2
38805;SDS011;25635;51.146;17.162;2023-12-28T00:00:38;51.50;;;25.70;;
38805;SDS011;25635;51.146;17.162;2023-12-28T00:03:25;46.60;;;23.70;;
38805;SDS011;25635;51.146;17.162;2023-12-28T00:05:52;49.40;;;24.90;;
38805;SDS011;25635;51.146;17.162;2023-12-28T00:08:19;49.80;;;24.60;;
38805;SDS011;25635;51.146;17.162;2023-12-28T00:11:06;49.30;;;22.90;;
38805;SDS011;25635;51.146;17.162;2023-12-28T00:13:53;46.90;;;22.50;;
38805;SDS011;25635;51.146;17.162;2023-12-28T00:16:19;50.50;;;24.40;;
38805;SDS011;25635;51.146;17.162;2023-12-28T00:19:06;43.90;;;22.10;;
38805;SDS011;25635;51.146;17.162;2023-12-28T00:21:53;45.50;;;22.90;;
38805;SDS011;25635;51.146;17.162;2023-12-28T00:24:40;40.20;;;21.40;;
38805;SDS011;25635;51.146;17.162;2023-12-28T00:27:06;48.40;;;24.20;;
38805;SDS011;25635;51.146;17.162;2023-12-28T00:29:53;45.60;;;24.90;;
38805;SDS011;25635;51.146;17.162;2023-12-28T00:32:19;48.50;;;24.10;;
38805;SDS011;25635;51.146;17.162;2023-12-28T00:34:46;44.70;;;22.90;;
38805;SDS011;25635;51.146;17.162;2023-12-28T00:37:13;42.50;;;22.30;;
38805;SDS011;25635;51.146;17.162;2023-12-28T00:39:40;41.10;;;22.20;;
38805;SDS011;25635;51.146;17.162;2023-12-28T00:42:07;41.70;;;20.70;;
38805;SDS011;25635;51.146;17.162;2023-12-28T00:44:53;40.10;;;20.50;;
38805;SDS011;25635;51.146;17.162;2023-12-28T00:47:40;39.40;;;20.20;;
38805;SDS011;25635;51.146;17.162;2023-12-28T00:50:09;41.60;;;21.80;;
38805;SDS011;25635;51.146;17.162;2023-12-28T00:52:59;42.90;;;21.00;;
38805;SDS011;25635;51.146;17.162;2023-12-28T00:55:45;40.40;;;18.90;;
38805;SDS011;25635;51.146;17.162;2023-12-28T00:58:32;36.90;;;19.30;;
38805;SDS011;25635;51.146;17.162;2023-12-28T01:01:00;43.10;;;19.80;;
38805;SDS011;25635;51.146;17.162;2023-12-28T01:03:26;44.10;;;20.60;;
38805;SDS011;25635;51.146;17.162;2023-12-28T01:06:13;43.60;;;21.00;;
38805;SDS011;25635;51.146;17.162;2023-12-28T01:08:59;49.50;;;21.40;;
38805;SDS011;25635;51.146;17.162;2023-12-28T01:11:26;52.10;;;23.20;;
38805;SDS011;25635;51.146;17.162;2023-12-28T01:13:53;47.00;;;21.50;;
38805;SDS011;25635;51.146;17.162;2023-12-28T01:16:19;47.60;;;22.30;;
38805;SDS011;25635;51.146;17.162;2023-12-28T01:18:47;44.40;;;21.50;;
38805;SDS011;25635;51.146;17.162;2023-12-28T01:21:13;47.10;;;21.40;;
38805;SDS011;25635;51.146;17.162;2023-12-28T01:23:40;47.40;;;22.00;;
38805;SDS011;25635;51.146;17.162;2023-12-28T01:26:27;45.80;;;21.10;;
38805;SDS011;25635;51.146;17.162;2023-12-28T01:31:43;42.90;;;20.80;;
38805;SDS011;25635;51.146;17.162;2023-12-28T01:34:10;41.70;;;20.30;;
38805;SDS011;25635;51.146;17.162;2023-12-28T01:36:57;43.00;;;20.80;;
38805;SDS011;25635;51.146;17.162;2023-12-28T01:39:43;45.20;;;22.70;;
38805;SDS011;25635;51.146;17.162;2023-12-28T01:42:10;52.20;;;23.50;;
38805;SDS011;25635;51.146;17.162;2023-12-28T01:44:57;52.30;;;24.70;;
38805;SDS011;25635;51.146;17.162;2023-12-28T01:47:44;56.80;;;26.40;;
38805;SDS011;25635;51.146;17.162;2023-12-28T01:50:18;52.50;;;24.90;;
38805;SDS011;25635;51.146;17.162;2023-12-28T01:52:47;46.90;;;23.50;;
38805;SDS011;25635;51.146;17.162;2023-12-28T01:55:15;40.60;;;21.50;;
38805;SDS011;25635;51.146;17.162;2023-12-28T01:57:43;45.60;;;21.20;;
38805;SDS011;25635;51.146;17.162;2023-12-28T02:00:10;38.10;;;20.10;;
38805;SDS011;25635;51.146;17.162;2023-12-28T02:02:37;37.60;;;19.90;;
38805;SDS011;25635;51.146;17.162;2023-12-28T02:05:04;40.40;;;19.90;;
38805;SDS011;25635;51.146;17.162;2023-12-28T02:07:31;37.70;;;19.70;;
38805;SDS011;25635;51.146;17.162;2023-12-28T02:09:59;36.90;;;19.20;;
38805;SDS011;25635;51.146;17.162;2023-12-28T02:12:25;41.60;;;20.10;;
38805;SDS011;25635;51.146;17.162;2023-12-28T02:14:52;39.40;;;21.10;;
38805;SDS011;25635;51.146;17.162;2023-12-28T02:17:20;40.90;;;21.30;;
38805;SDS011;25635;51.146;17.162;2023-12-28T02:19:54;42.20;;;21.60;;
38805;SDS011;25635;51.146;17.162;2023-12-28T02:22:23;38.00;;;20.00;;
38805;SDS011;25635;51.146;17.162;2023-12-28T02:25:09;40.30;;;20.20;;
38805;SDS011;25635;51.146;17.162;2023-12-28T02:27:46;41.40;;;21.10;;
38805;SDS011;25635;51.146;17.162;2023-12-28T02:30:19;41.10;;;19.20;;
38805;SDS011;25635;51.146;17.162;2023-12-28T02:35:44;40.80;;;18.90;;
38805;SDS011;25635;51.146;17.162;2023-12-28T02:38:15;36.40;;;18.60;;
38805;SDS011;25635;51.146;17.162;2023-12-28T02:40:42;34.00;;;17.40;;
38805;SDS011;25635;51.146;17.162;2023-12-28T02:43:11;38.00;;;19.00;;
38805;SDS011;25635;51.146;17.162;2023-12-28T02:45:38;37.60;;;20.20;;
38805;SDS011;25635;51.146;17.162;2023-12-28T02:48:06;36.00;;;19.20;;
38805;SDS011;25635;51.146;17.162;2023-12-28T02:50:33;36.80;;;19.60;;
38805;SDS011;25635;51.146;17.162;2023-12-28T02:53:00;47.20;;;21.70;;
38805;SDS011;25635;51.146;17.162;2023-12-28T02:55:27;52.70;;;24.90;;
38805;SDS011;25635;51.146;17.162;2023-12-28T02:57:55;53.30;;;23.20;;
38805;SDS011;25635;51.146;17.162;2023-12-28T03:00:26;45.20;;;22.80;;
38805;SDS011;25635;51.146;17.162;2023-12-28T03:02:53;40.90;;;20.10;;
38805;SDS011;25635;51.146;17.162;2023-12-28T03:05:40;43.50;;;20.30;;
38805;SDS011;25635;51.146;17.162;2023-12-28T03:08:27;41.20;;;20.90;;
38805;SDS011;25635;51.146;17.162;2023-12-28T03:10:58;43.60;;;20.40;;
38805;SDS011;25635;51.146;17.162;2023-12-28T03:13:25;38.60;;;18.90;;
38805;SDS011;25635;51.146;17.162;2023-12-28T03:16:13;41.30;;;19.70;;
38805;SDS011;25635;51.146;17.162;2023-12-28T03:19:00;41.60;;;19.80;;
38805;SDS011;25635;51.146;17.162;2023-12-28T03:21:26;43.20;;;20.70;;
38805;SDS011;25635;51.146;17.162;2023-12-28T03:23:53;40.10;;;20.70;;
38805;SDS011;25635;51.146;17.162;2023-12-28T03:26:40;43.80;;;22.70;;
38805;SDS011;25635;51.146;17.162;2023-12-28T03:29:27;42.40;;;20.70;;
38805;SDS011;25635;51.146;17.162;2023-12-28T03:32:14;39.00;;;18.60;;
38805;SDS011;25635;51.146;17.162;2023-12-28T03:35:01;34.80;;;17.10;;
38805;SDS011;25635;51.146;17.162;2023-12-28T03:37:47;32.30;;;16.00;;
38805;SDS011;25635;51.146;17.162;2023-12-28T03:40:34;27.80;;;14.50;;
38805;SDS011;25635;51.146;17.162;2023-12-28T03:43:21;28.30;;;14.60;;
38805;SDS011;25635;51.146;17.162;2023-12-28T03:46:07;25.60;;;13.80;;
38805;SDS011;25635;51.146;17.162;2023-12-28T03:48:54;24.70;;;13.60;;
38805;SDS011;25635;51.146;17.162;2023-12-28T03:51:21;26.80;;;14.70;;
38805;SDS011;25635;51.146;17.162;2023-12-28T03:54:08;25.50;;;13.30;;
38805;SDS011;25635;51.146;17.162;2023-12-28T03:56:55;27.90;;;13.30;;
38805;SDS011;25635;51.146;17.162;2023-12-28T03:59:41;28.60;;;13.70;;
38805;SDS011;25635;51.146;17.162;2023-12-28T04:02:08;26.70;;;13.60;;
38805;SDS011;25635;51.146;17.162;2023-12-28T04:04:35;25.70;;;12.90;;
38805;SDS011;25635;51.146;17.162;2023-12-28T04:07:21;28.60;;;14.10;;
38805;SDS011;25635;51.146;17.162;2023-12-28T04:10:08;28.70;;;15.10;;
38805;SDS011;25635;51.146;17.162;2023-12-28T04:12:35;28.80;;;15.20;;
38805;SDS011;25635;51.146;17.162;2023-12-28T04:15:03;29.10;;;14.20;;
38805;SDS011;25635;51.146;17.162;2023-12-28T04:17:30;24.80;;;12.50;;
38805;SDS011;25635;51.146;17.162;2023-12-28T04:19:57;28.00;;;13.10;;
38805;SDS011;25635;51.146;17.162;2023-12-28T04:22:23;24.00;;;13.00;;
38805;SDS011;25635;51.146;17.162;2023-12-28T04:24:50;24.90;;;12.60;;
38805;SDS011;25635;51.146;17.162;2023-12-28T04:27:17;27.30;;;12.40;;
38805;SDS011;25635;51.146;17.162;2023-12-28T04:30:04;25.00;;;12.80;;
38805;SDS011;25635;51.146;17.162;2023-12-28T04:32:54;26.00;;;13.20;;
38805;SDS011;25635;51.146;17.162;2023-12-28T04:35:40;24.10;;;12.20;;
38805;SDS011;25635;51.146;17.162;2023-12-28T04:38:27;26.60;;;13.30;;
38805;SDS011;25635;51.146;17.162;2023-12-28T04:41:14;25.30;;;12.20;;
38805;SDS011;25635;51.146;17.162;2023-12-28T04:43:41;25.80;;;12.80;;
38805;SDS011;25635;51.146;17.162;2023-12-28T04:46:07;28.10;;;12.90;;
38805;SDS011;25635;51.146;17.162;2023-12-28T04:48:54;24.10;;;12.60;;
38805;SDS011;25635;51.146;17.162;2023-12-28T04:51:44;23.50;;;11.80;;
38805;SDS011;25635;51.146;17.162;2023-12-28T04:54:31;22.40;;;12.00;;
38805;SDS011;25635;51.146;17.162;2023-12-28T04:57:17;21.10;;;11.20;;
38805;SDS011;25635;51.146;17.162;2023-12-28T05:00:05;25.30;;;11.20;;
38805;SDS011;25635;51.146;17.162;2023-12-28T05:02:33;18.10;;;9.40;;
38805;SDS011;25635;51.146;17.162;2023-12-28T05:05:20;16.00;;;7.70;;
38805;SDS011;25635;51.146;17.162;2023-12-28T05:08:06;13.60;;;7.40;;
38805;SDS011;25635;51.146;17.162;2023-12-28T05:10:33;13.60;;;7.20;;
38805;SDS011;25635;51.146;17.162;2023-12-28T05:13:00;13.20;;;7.50;;
38805;SDS011;25635;51.146;17.162;2023-12-28T05:15:26;13.70;;;7.70;;
38805;SDS011;25635;51.146;17.162;2023-12-28T05:17:53;11.70;;;6.30;;
38805;SDS011;25635;51.146;17.162;2023-12-28T05:20:20;10.80;;;6.10;;
38805;SDS011;25635;51.146;17.162;2023-12-28T05:22:47;12.10;;;6.30;;
38805;SDS011;25635;51.146;17.162;2023-12-28T05:25:14;12.50;;;6.10;;
38805;SDS011;25635;51.146;17.162;2023-12-28T05:27:41;13.10;;;6.20;;
38805;SDS011;25635;51.146;17.162;2023-12-28T05:30:09;13.10;;;6.00;;
38805;SDS011;25635;51.146;17.162;2023-12-28T05:32:37;11.20;;;5.70;;
38805;SDS011;25635;51.146;17.162;2023-12-28T05:35:04;11.50;;;5.50;;
38805;SDS011;25635;51.146;17.162;2023-12-28T05:37:31;11.50;;;5.30;;
38805;SDS011;25635;51.146;17.162;2023-12-28T05:39:57;9.50;;;4.70;;
38805;SDS011;25635;51.146;17.162;2023-12-28T05:42:24;12.60;;;5.60;;
38805;SDS011;25635;51.146;17.162;2023-12-28T05:44:51;9.30;;;5.00;;
38805;SDS011;25635;51.146;17.162;2023-12-28T05:47:18;9.50;;;5.10;;
38805;SDS011;25635;51.146;17.162;2023-12-28T05:49:44;8.60;;;4.90;;
38805;SDS011;25635;51.146;17.162;2023-12-28T05:52:11;11.00;;;4.90;;
38805;SDS011;25635;51.146;17.162;2023-12-28T05:54:41;9.20;;;5.00;;
38805;SDS011;25635;51.146;17.162;2023-12-28T05:57:09;8.30;;;5.10;;
38805;SDS011;25635;51.146;17.162;2023-12-28T05:59:39;8.30;;;4.80;;
38805;SDS011;25635;51.146;17.162;2023-12-28T06:02:06;10.50;;;4.80;;
38805;SDS011;25635;51.146;17.162;2023-12-28T06:04:33;9.10;;;4.70;;
38805;SDS011;25635;51.146;17.162;2023-12-28T06:07:02;10.00;;;4.90;;
38805;SDS011;25635;51.146;17.162;2023-12-28T06:09:29;8.00;;;4.60;;
38805;SDS011;25635;51.146;17.162;2023-12-28T06:11:56;11.20;;;6.00;;
38805;SDS011;25635;51.146;17.162;2023-12-28T06:14:23;9.80;;;4.80;;
38805;SDS011;25635;51.146;17.162;2023-12-28T06:16:49;9.70;;;5.10;;
38805;SDS011;25635;51.146;17.162;2023-12-28T06:19:16;9.60;;;4.90;;
38805;SDS011;25635;51.146;17.162;2023-12-28T06:21:43;10.10;;;4.50;;
38805;SDS011;25635;51.146;17.162;2023-12-28T06:24:09;8.60;;;4.90;;
38805;SDS011;25635;51.146;17.162;2023-12-28T06:26:40;10.70;;;5.40;;
38805;SDS011;25635;51.146;17.162;2023-12-28T06:29:07;11.80;;;5.20;;
38805;SDS011;25635;51.146;17.162;2023-12-28T06:31:35;8.90;;;4.70;;
38805;SDS011;25635;51.146;17.162;2023-12-28T06:34:03;8.50;;;4.30;;
38805;SDS011;25635;51.146;17.162;2023-12-28T06:36:30;9.20;;;5.10;;
38805;SDS011;25635;51.146;17.162;2023-12-28T06:38:57;12.40;;;6.10;;
38805;SDS011;25635;51.146;17.162;2023-12-28T06:41:24;12.20;;;6.00;;
38805;SDS011;25635;51.146;17.162;2023-12-28T06:43:51;11.00;;;5.20;;
38805;SDS011;25635;51.146;17.162;2023-12-28T06:46:18;9.50;;;5.70;;
38805;SDS011;25635;51.146;17.162;2023-12-28T06:48:45;9.70;;;5.30;;
38805;SDS011;25635;51.146;17.162;2023-12-28T06:51:16;10.90;;;5.50;;
38805;SDS011;25635;51.146;17.162;2023-12-28T06:53:46;9.70;;;5.30;;
38805;SDS011;25635;51.146;17.162;2023-12-28T06:56:13;10.40;;;5.90;;
38805;SDS011;25635;51.146;17.162;2023-12-28T06:58:40;9.70;;;6.50;;
38805;SDS011;25635;51.146;17.162;2023-12-28T07:01:27;8.50;;;5.60;;
38805;SDS011;25635;51.146;17.162;2023-12-28T07:04:14;8.70;;;4.80;;
38805;SDS011;25635;51.146;17.162;2023-12-28T07:07:00;8.50;;;4.50;;
38805;SDS011;25635;51.146;17.162;2023-12-28T07:09:47;11.50;;;5.40;;
38805;SDS011;25635;51.146;17.162;2023-12-28T07:12:14;11.00;;;6.00;;
38805;SDS011;25635;51.146;17.162;2023-12-28T07:14:41;10.70;;;6.10;;
38805;SDS011;25635;51.146;17.162;2023-12-28T07:17:08;10.60;;;5.90;;
38805;SDS011;25635;51.146;17.162;2023-12-28T07:19:38;10.30;;;6.70;;
38805;SDS011;25635;51.146;17.162;2023-12-28T07:22:04;11.30;;;6.50;;
38805;SDS011;25635;51.146;17.162;2023-12-28T07:24:31;10.30;;;5.80;;
38805;SDS011;25635;51.146;17.162;2023-12-28T07:26:57;13.30;;;6.30;;
38805;SDS011;25635;51.146;17.162;2023-12-28T07:29:24;12.80;;;6.00;;
38805;SDS011;25635;51.146;17.162;2023-12-28T07:31:51;11.40;;;5.60;;
38805;SDS011;25635;51.146;17.162;2023-12-28T07:34:17;10.30;;;5.30;;
38805;SDS011;25635;51.146;17.162;2023-12-28T07:36:44;10.20;;;6.00;;
38805;SDS011;25635;51.146;17.162;2023-12-28T07:39:30;10.70;;;5.60;;
38805;SDS011;25635;51.146;17.162;2023-12-28T07:41:57;11.30;;;5.40;;
38805;SDS011;25635;51.146;17.162;2023-12-28T07:44:44;10.40;;;5.10;;
38805;SDS011;25635;51.146;17.162;2023-12-28T07:47:30;10.30;;;5.70;;
38805;SDS011;25635;51.146;17.162;2023-12-28T07:50:05;12.20;;;5.60;;
38805;SDS011;25635;51.146;17.162;2023-12-28T07:52:32;13.60;;;6.60;;
38805;SDS011;25635;51.146;17.162;2023-12-28T07:54:59;13.00;;;6.20;;
38805;SDS011;25635;51.146;17.162;2023-12-28T07:57:46;18.40;;;6.90;;
38805;SDS011;25635;51.146;17.162;2023-12-28T08:00:12;9.20;;;5.40;;
38805;SDS011;25635;51.146;17.162;2023-12-28T08:02:39;10.70;;;5.00;;
38805;SDS011;25635;51.146;17.162;2023-12-28T08:05:06;12.40;;;6.00;;
38805;SDS011;25635;51.146;17.162;2023-12-28T08:07:33;13.10;;;6.10;;
38805;SDS011;25635;51.146;17.162;2023-12-28T08:10:00;13.30;;;6.00;;
38805;SDS011;25635;51.146;17.162;2023-12-28T08:12:47;9.60;;;4.80;;
38805;SDS011;25635;51.146;17.162;2023-12-28T08:15:33;10.00;;;5.60;;
38805;SDS011;25635;51.146;17.162;2023-12-28T08:18:20;14.30;;;5.50;;
38805;SDS011;25635;51.146;17.162;2023-12-28T08:20:47;11.60;;;5.70;;
38805;SDS011;25635;51.146;17.162;2023-12-28T08:23:33;12.20;;;6.70;;
38805;SDS011;25635;51.146;17.162;2023-12-28T08:26:20;9.50;;;6.60;;
38805;SDS011;25635;51.146;17.162;2023-12-28T08:29:06;11.20;;;6.60;;
38805;SDS011;25635;51.146;17.162;2023-12-28T08:31:33;9.30;;;5.30;;
38805;SDS011;25635;51.146;17.162;2023-12-28T08:34:00;10.30;;;5.00;;
38805;SDS011;25635;51.146;17.162;2023-12-28T08:36:27;9.30;;;4.60;;
38805;SDS011;25635;51.146;17.162;2023-12-28T08:38:53;10.40;;;4.80;;
38805;SDS011;25635;51.146;17.162;2023-12-28T08:41:20;11.40;;;5.30;;
38805;SDS011;25635;51.146;17.162;2023-12-28T08:43:47;14.30;;;5.80;;
38805;SDS011;25635;51.146;17.162;2023-12-28T08:46:14;12.10;;;5.40;;
38805;SDS011;25635;51.146;17.162;2023-12-28T08:48:41;10.10;;;5.10;;
38805;SDS011;25635;51.146;17.162;2023-12-28T08:51:11;19.90;;;7.80;;
38805;SDS011;25635;51.146;17.162;2023-12-28T08:53:40;27.90;;;10.70;;
38805;SDS011;25635;51.146;17.162;2023-12-28T08:56:17;30.00;;;11.10;;
38805;SDS011;25635;51.146;17.162;2023-12-28T08:58:45;29.10;;;12.00;;
38805;SDS011;25635;51.146;17.162;2023-12-28T09:01:36;21.10;;;9.20;;
38805;SDS011;25635;51.146;17.162;2023-12-28T09:04:03;17.60;;;8.20;;
38805;SDS011;25635;51.146;17.162;2023-12-28T09:06:30;10.90;;;5.40;;
38805;SDS011;25635;51.146;17.162;2023-12-28T09:08:56;13.00;;;5.80;;
38805;SDS011;25635;51.146;17.162;2023-12-28T09:11:24;12.40;;;5.50;;
38805;SDS011;25635;51.146;17.162;2023-12-28T09:13:51;11.00;;;5.70;;
38805;SDS011;25635;51.146;17.162;2023-12-28T09:16:37;8.30;;;4.40;;
38805;SDS011;25635;51.146;17.162;2023-12-28T09:19:05;8.60;;;3.50;;
38805;SDS011;25635;51.146;17.162;2023-12-28T09:21:33;7.50;;;3.00;;
38805;SDS011;25635;51.146;17.162;2023-12-28T09:24:00;6.40;;;2.90;;
38805;SDS011;25635;51.146;17.162;2023-12-28T09:26:29;6.30;;;3.00;;
38805;SDS011;25635;51.146;17.162;2023-12-28T09:28:55;7.80;;;2.80;;
38805;SDS011;25635;51.146;17.162;2023-12-28T09:31:22;7.40;;;3.10;;
38805;SDS011;25635;51.146;17.162;2023-12-28T09:33:49;6.20;;;2.80;;
38805;SDS011;25635;51.146;17.162;2023-12-28T09:36:15;5.90;;;2.10;;
38805;SDS011;25635;51.146;17.162;2023-12-28T09:38:43;7.30;;;2.60;;
38805;SDS011;25635;51.146;17.162;2023-12-28T09:41:29;5.00;;;2.50;;
38805;SDS011;25635;51.146;17.162;2023-12-28T09:44:20;5.40;;;2.40;;
38805;SDS011;25635;51.146;17.162;2023-12-28T09:47:07;5.10;;;2.50;;
38805;SDS011;25635;51.146;17.162;2023-12-28T09:49:34;5.80;;;2.40;;
38805;SDS011;25635;51.146;17.162;2023-12-28T09:52:03;6.10;;;2.50;;
38805;SDS011;25635;51.146;17.162;2023-12-28T09:54:30;5.80;;;2.80;;
38805;SDS011;25635;51.146;17.162;2023-12-28T09:56:58;8.60;;;3.20;;
38805;SDS011;25635;51.146;17.162;2023-12-28T09:59:25;6.10;;;3.00;;
38805;SDS011;25635;51.146;17.162;2023-12-28T10:02:13;5.90;;;2.80;;
38805;SDS011;25635;51.146;17.162;2023-12-28T10:05:02;7.10;;;3.10;;
38805;SDS011;25635;51.146;17.162;2023-12-28T10:07:50;7.80;;;3.30;;
38805;SDS011;25635;51.146;17.162;2023-12-28T10:10:37;6.30;;;2.90;;
38805;SDS011;25635;51.146;17.162;2023-12-28T10:13:24;8.90;;;3.20;;
38805;SDS011;25635;51.146;17.162;2023-12-28T10:16:11;6.60;;;3.00;;
38805;SDS011;25635;51.146;17.162;2023-12-28T10:18:58;8.30;;;3.40;;
38805;SDS011;25635;51.146;17.162;2023-12-28T10:21:25;7.60;;;3.20;;
38805;SDS011;25635;51.146;17.162;2023-12-28T10:23:51;7.80;;;3.40;;
38805;SDS011;25635;51.146;17.162;2023-12-28T10:26:38;6.30;;;3.00;;
38805;SDS011;25635;51.146;17.162;2023-12-28T10:29:13;11.10;;;3.90;;
38805;SDS011;25635;51.146;17.162;2023-12-28T10:32:00;7.80;;;3.50;;
38805;SDS011;25635;51.146;17.162;2023-12-28T10:34:46;7.20;;;3.80;;
38805;SDS011;25635;51.146;17.162;2023-12-28T10:37:33;10.90;;;3.90;;
38805;SDS011;25635;51.146;17.162;2023-12-28T10:40:05;6.10;;;3.00;;
38805;SDS011;25635;51.146;17.162;2023-12-28T10:45:48;6.90;;;3.30;;
38805;SDS011;25635;51.146;17.162;2023-12-28T10:48:38;6.50;;;3.30;;
38805;SDS011;25635;51.146;17.162;2023-12-28T10:51:09;8.10;;;3.80;;
38805;SDS011;25635;51.146;17.162;2023-12-28T10:56:59;6.90;;;3.30;;
38805;SDS011;25635;51.146;17.162;2023-12-28T11:00:07;7.50;;;3.90;;
38805;SDS011;25635;51.146;17.162;2023-12-28T11:02:57;8.80;;;3.70;;
38805;SDS011;25635;51.146;17.162;2023-12-28T11:05:28;7.70;;;3.90;;
38805;SDS011;25635;51.146;17.162;2023-12-28T11:07:56;12.00;;;3.30;;
38805;SDS011;25635;51.146;17.162;2023-12-28T11:10:45;7.20;;;3.40;;
38805;SDS011;25635;51.146;17.162;2023-12-28T11:13:33;7.50;;;3.50;;
38805;SDS011;25635;51.146;17.162;2023-12-28T11:16:02;8.30;;;3.90;;
38805;SDS011;25635;51.146;17.162;2023-12-28T11:18:29;8.10;;;3.80;;
38805;SDS011;25635;51.146;17.162;2023-12-28T11:20:55;6.90;;;3.20;;
38805;SDS011;25635;51.146;17.162;2023-12-28T11:23:23;6.00;;;2.80;;
38805;SDS011;25635;51.146;17.162;2023-12-28T11:25:51;8.50;;;3.50;;
38805;SDS011;25635;51.146;17.162;2023-12-28T11:28:37;7.20;;;3.10;;
38805;SDS011;25635;51.146;17.162;2023-12-28T11:31:25;8.20;;;4.10;;
38805;SDS011;25635;51.146;17.162;2023-12-28T11:34:12;6.60;;;3.80;;
38805;SDS011;25635;51.146;17.162;2023-12-28T11:36:45;7.20;;;3.30;;
38805;SDS011;25635;51.146;17.162;2023-12-28T11:39:20;7.90;;;3.20;;
38805;SDS011;25635;51.146;17.162;2023-12-28T11:41:59;9.50;;;3.90;;
38805;SDS011;25635;51.146;17.162;2023-12-28T11:44:30;7.30;;;3.70;;
38805;SDS011;25635;51.146;17.162;2023-12-28T11:46:57;11.50;;;3.90;;
38805;SDS011;25635;51.146;17.162;2023-12-28T11:49:27;9.30;;;3.90;;
38805;SDS011;25635;51.146;17.162;2023-12-28T11:51:55;6.90;;;3.50;;
38805;SDS011;25635;51.146;17.162;2023-12-28T11:54:47;7.10;;;3.20;;
38805;SDS011;25635;51.146;17.162;2023-12-28T11:57:15;7.30;;;3.20;;
38805;SDS011;25635;51.146;17.162;2023-12-28T11:59:42;7.30;;;3.40;;
38805;SDS011;25635;51.146;17.162;2023-12-28T12:02:10;6.90;;;3.10;;
38805;SDS011;25635;51.146;17.162;2023-12-28T12:04:37;6.10;;;2.80;;
38805;SDS011;25635;51.146;17.162;2023-12-28T12:07:24;8.10;;;3.30;;
38805;SDS011;25635;51.146;17.162;2023-12-28T12:10:14;7.00;;;3.40;;
38805;SDS011;25635;51.146;17.162;2023-12-28T12:13:01;7.30;;;3.10;;
38805;SDS011;25635;51.146;17.162;2023-12-28T12:15:29;6.70;;;3.30;;
38805;SDS011;25635;51.146;17.162;2023-12-28T12:18:16;8.50;;;3.40;;
38805;SDS011;25635;51.146;17.162;2023-12-28T12:21:03;8.30;;;3.40;;
38805;SDS011;25635;51.146;17.162;2023-12-28T12:23:49;6.40;;;3.70;;
38805;SDS011;25635;51.146;17.162;2023-12-28T12:26:19;8.10;;;3.20;;
38805;SDS011;25635;51.146;17.162;2023-12-28T12:28:47;7.90;;;3.90;;
38805;SDS011;25635;51.146;17.162;2023-12-28T12:31:14;9.70;;;5.20;;
38805;SDS011;25635;51.146;17.162;2023-12-28T12:33:41;9.90;;;4.70;;
38805;SDS011;25635;51.146;17.162;2023-12-28T12:36:08;12.20;;;5.20;;
38805;SDS011;25635;51.146;17.162;2023-12-28T12:38:34;8.90;;;4.50;;
38805;SDS011;25635;51.146;17.162;2023-12-28T12:41:02;8.70;;;4.50;;
38805;SDS011;25635;51.146;17.162;2023-12-28T12:43:30;9.60;;;4.60;;
38805;SDS011;25635;51.146;17.162;2023-12-28T12:45:57;7.70;;;4.30;;
38805;SDS011;25635;51.146;17.162;2023-12-28T12:48:23;8.60;;;4.50;;
38805;SDS011;25635;51.146;17.162;2023-12-28T12:50:50;9.70;;;4.20;;
38805;SDS011;25635;51.146;17.162;2023-12-28T12:53:17;8.60;;;3.90;;
38805;SDS011;25635;51.146;17.162;2023-12-28T12:55:44;10.00;;;3.90;;
38805;SDS011;25635;51.146;17.162;2023-12-28T12:58:13;9.10;;;4.10;;
38805;SDS011;25635;51.146;17.162;2023-12-28T13:00:44;8.50;;;4.10;;
38805;SDS011;25635;51.146;17.162;2023-12-28T13:03:31;9.10;;;4.50;;
38805;SDS011;25635;51.146;17.162;2023-12-28T13:05:58;9.50;;;4.20;;
38805;SDS011;25635;51.146;17.162;2023-12-28T13:08:45;9.10;;;4.20;;
38805;SDS011;25635;51.146;17.162;2023-12-28T13:11:31;8.70;;;4.00;;
38805;SDS011;25635;51.146;17.162;2023-12-28T13:14:19;8.10;;;4.10;;
38805;SDS011;25635;51.146;17.162;2023-12-28T13:16:46;9.00;;;4.40;;
38805;SDS011;25635;51.146;17.162;2023-12-28T13:19:14;10.20;;;4.90;;
38805;SDS011;25635;51.146;17.162;2023-12-28T13:21:41;10.30;;;4.20;;
38805;SDS011;25635;51.146;17.162;2023-12-28T13:24:27;11.80;;;5.70;;
38805;SDS011;25635;51.146;17.162;2023-12-28T13:26:54;10.20;;;4.20;;
38805;SDS011;25635;51.146;17.162;2023-12-28T13:29:41;8.70;;;4.30;;
38805;SDS011;25635;51.146;17.162;2023-12-28T13:32:27;8.70;;;4.50;;
38805;SDS011;25635;51.146;17.162;2023-12-28T13:35:14;11.30;;;4.70;;
38805;SDS011;25635;51.146;17.162;2023-12-28T13:37:41;10.30;;;4.50;;
38805;SDS011;25635;51.146;17.162;2023-12-28T13:40:08;11.10;;;4.60;;
38805;SDS011;25635;51.146;17.162;2023-12-28T13:42:35;11.40;;;4.70;;
38805;SDS011;25635;51.146;17.162;2023-12-28T13:45:02;10.80;;;4.90;;
38805;SDS011;25635;51.146;17.162;2023-12-28T13:47:29;8.40;;;4.30;;
38805;SDS011;25635;51.146;17.162;2023-12-28T13:49:56;67.50;;;52.60;;
38805;SDS011;25635;51.146;17.162;2023-12-28T13:52:23;13.00;;;9.40;;
38805;SDS011;25635;51.146;17.162;2023-12-28T13:55:09;10.40;;;6.30;;
38805;SDS011;25635;51.146;17.162;2023-12-28T13:57:38;25.50;;;15.90;;
38805;SDS011;25635;51.146;17.162;2023-12-28T14:00:05;22.80;;;11.70;;
38805;SDS011;25635;51.146;17.162;2023-12-28T14:02:32;15.60;;;8.30;;
38805;SDS011;25635;51.146;17.162;2023-12-28T14:05:00;15.90;;;6.20;;
38805;SDS011;25635;51.146;17.162;2023-12-28T14:07:27;10.30;;;6.10;;
38805;SDS011;25635;51.146;17.162;2023-12-28T14:09:53;11.00;;;5.90;;
38805;SDS011;25635;51.146;17.162;2023-12-28T14:12:20;15.30;;;7.60;;
38805;SDS011;25635;51.146;17.162;2023-12-28T14:14:47;14.20;;;7.10;;
38805;SDS011;25635;51.146;17.162;2023-12-28T14:17:14;15.40;;;7.20;;
38805;SDS011;25635;51.146;17.162;2023-12-28T14:19:41;11.50;;;6.40;;
38805;SDS011;25635;51.146;17.162;2023-12-28T14:22:08;11.10;;;6.10;;
38805;SDS011;25635;51.146;17.162;2023-12-28T14:24:55;11.10;;;5.40;;
38805;SDS011;25635;51.146;17.162;2023-12-28T14:27:22;10.90;;;5.80;;
38805;SDS011;25635;51.146;17.162;2023-12-28T14:29:50;13.30;;;5.90;;
38805;SDS011;25635;51.146;17.162;2023-12-28T14:32:37;13.10;;;6.00;;
38805;SDS011;25635;51.146;17.162;2023-12-28T14:35:24;11.60;;;6.10;;
38805;SDS011;25635;51.146;17.162;2023-12-28T14:38:11;12.20;;;6.30;;
38805;SDS011;25635;51.146;17.162;2023-12-28T14:40:38;14.50;;;7.40;;
38805;SDS011;25635;51.146;17.162;2023-12-28T14:43:05;13.80;;;6.50;;
38805;SDS011;25635;51.146;17.162;2023-12-28T14:45:51;16.30;;;7.30;;
38805;SDS011;25635;51.146;17.162;2023-12-28T14:48:19;14.40;;;7.30;;
38805;SDS011;25635;51.146;17.162;2023-12-28T14:51:06;15.20;;;7.50;;
38805;SDS011;25635;51.146;17.162;2023-12-28T14:53:53;11.80;;;6.10;;
38805;SDS011;25635;51.146;17.162;2023-12-28T14:56:19;12.80;;;6.60;;
38805;SDS011;25635;51.146;17.162;2023-12-28T14:58:47;11.30;;;5.50;;
38805;SDS011;25635;51.146;17.162;2023-12-28T15:01:16;11.30;;;6.10;;
38805;SDS011;25635;51.146;17.162;2023-12-28T15:03:46;14.50;;;6.90;;
38805;SDS011;25635;51.146;17.162;2023-12-28T15:06:13;21.90;;;11.20;;
38805;SDS011;25635;51.146;17.162;2023-12-28T15:08:40;17.30;;;9.60;;
38805;SDS011;25635;51.146;17.162;2023-12-28T15:11:07;18.50;;;8.80;;